sensor_id;sensor_type;location;lat;lon;timestamp;P1;durP1;ratioP1;P2;durP2;ratioP2
70337;SDS011;57757;53.198;19.646;2024-01-15T00:02:13;31.30;;;11.70;;
70337;SDS011;57757;53.198;19.646;2024-01-15T00:04:41;23.10;;;10.20;;
70337;SDS011;57757;53.198;19.646;2024-01-15T00:07:09;29.00;;;11.70;;
70337;SDS011;57757;53.198;19.646;2024-01-15T00:09:37;24.80;;;11.20;;
70337;SDS011;57757;53.198;19.646;2024-01-15T00:12:05;25.70;;;12.00;;
70337;SDS011;57757;53.198;19.646;2024-01-15T00:14:33;29.30;;;10.10;;
70337;SDS011;57757;53.198;19.646;2024-01-15T00:17:00;22.90;;;10.30;;
70337;SDS011;57757;53.198;19.646;2024-01-15T00:19:28;23.10;;;10.30;;
70337;SDS011;57757;53.198;19.646;2024-01-15T00:21:55;25.10;;;11.30;;
70337;SDS011;57757;53.198;19.646;2024-01-15T00:24:24;27.30;;;10.70;;
70337;SDS011;57757;53.198;19.646;2024-01-15T00:26:52;28.80;;;11.90;;
70337;SDS011;57757;53.198;19.646;2024-01-15T00:29:21;27.10;;;11.20;;
70337;SDS011;57757;53.198;19.646;2024-01-15T00:31:49;26.50;;;12.10;;
70337;SDS011;57757;53.198;19.646;2024-01-15T00:34:17;25.80;;;11.50;;
70337;SDS011;57757;53.198;19.646;2024-01-15T00:36:44;24.10;;;10.90;;
70337;SDS011;57757;53.198;19.646;2024-01-15T00:39:12;26.10;;;11.20;;
70337;SDS011;57757;53.198;19.646;2024-01-15T00:41:40;24.20;;;10.90;;
70337;SDS011;57757;53.198;19.646;2024-01-15T00:44:08;22.30;;;10.00;;
70337;SDS011;57757;53.198;19.646;2024-01-15T00:46:44;26.10;;;10.40;;
70337;SDS011;57757;53.198;19.646;2024-01-15T00:49:13;24.90;;;10.10;;
70337;SDS011;57757;53.198;19.646;2024-01-15T00:51:42;26.30;;;10.60;;
70337;SDS011;57757;53.198;19.646;2024-01-15T00:54:09;24.60;;;9.80;;
70337;SDS011;57757;53.198;19.646;2024-01-15T00:56:37;24.00;;;10.70;;
70337;SDS011;57757;53.198;19.646;2024-01-15T00:59:05;26.30;;;12.00;;
70337;SDS011;57757;53.198;19.646;2024-01-15T01:01:32;26.10;;;12.40;;
70337;SDS011;57757;53.198;19.646;2024-01-15T01:04:00;27.60;;;11.20;;
70337;SDS011;57757;53.198;19.646;2024-01-15T01:06:28;25.10;;;12.00;;
70337;SDS011;57757;53.198;19.646;2024-01-15T01:08:59;27.80;;;11.00;;
70337;SDS011;57757;53.198;19.646;2024-01-15T01:11:27;28.80;;;12.00;;
70337;SDS011;57757;53.198;19.646;2024-01-15T01:13:55;29.50;;;11.10;;
70337;SDS011;57757;53.198;19.646;2024-01-15T01:16:24;25.70;;;11.20;;
70337;SDS011;57757;53.198;19.646;2024-01-15T01:18:51;28.80;;;12.10;;
70337;SDS011;57757;53.198;19.646;2024-01-15T01:21:20;29.20;;;11.70;;
70337;SDS011;57757;53.198;19.646;2024-01-15T01:23:47;31.70;;;12.90;;
70337;SDS011;57757;53.198;19.646;2024-01-15T01:26:16;31.70;;;14.00;;
70337;SDS011;57757;53.198;19.646;2024-01-15T01:28:44;27.00;;;11.60;;
70337;SDS011;57757;53.198;19.646;2024-01-15T01:31:12;28.50;;;12.50;;
70337;SDS011;57757;53.198;19.646;2024-01-15T01:33:40;33.10;;;14.30;;
70337;SDS011;57757;53.198;19.646;2024-01-15T01:36:08;32.30;;;14.30;;
70337;SDS011;57757;53.198;19.646;2024-01-15T01:38:39;29.40;;;12.90;;
70337;SDS011;57757;53.198;19.646;2024-01-15T01:41:07;26.40;;;11.60;;
70337;SDS011;57757;53.198;19.646;2024-01-15T01:43:35;30.90;;;13.10;;
70337;SDS011;57757;53.198;19.646;2024-01-15T01:46:02;29.70;;;12.20;;
70337;SDS011;57757;53.198;19.646;2024-01-15T01:48:30;31.90;;;12.70;;
70337;SDS011;57757;53.198;19.646;2024-01-15T01:51:00;31.00;;;12.60;;
70337;SDS011;57757;53.198;19.646;2024-01-15T01:53:32;25.50;;;11.30;;
70337;SDS011;57757;53.198;19.646;2024-01-15T01:56:02;28.60;;;12.20;;
70337;SDS011;57757;53.198;19.646;2024-01-15T01:58:31;26.60;;;13.10;;
70337;SDS011;57757;53.198;19.646;2024-01-15T02:01:00;25.10;;;10.80;;
70337;SDS011;57757;53.198;19.646;2024-01-15T02:03:29;27.40;;;12.60;;
70337;SDS011;57757;53.198;19.646;2024-01-15T02:05:59;28.40;;;11.90;;
70337;SDS011;57757;53.198;19.646;2024-01-15T02:08:28;27.00;;;11.80;;
70337;SDS011;57757;53.198;19.646;2024-01-15T02:10:56;28.80;;;11.90;;
70337;SDS011;57757;53.198;19.646;2024-01-15T02:13:23;28.20;;;12.10;;
70337;SDS011;57757;53.198;19.646;2024-01-15T02:15:51;30.70;;;12.40;;
70337;SDS011;57757;53.198;19.646;2024-01-15T02:18:19;27.70;;;12.20;;
70337;SDS011;57757;53.198;19.646;2024-01-15T02:20:47;26.70;;;11.90;;
70337;SDS011;57757;53.198;19.646;2024-01-15T02:23:15;27.90;;;12.10;;
70337;SDS011;57757;53.198;19.646;2024-01-15T02:25:44;24.60;;;11.20;;
70337;SDS011;57757;53.198;19.646;2024-01-15T02:28:14;29.50;;;11.50;;
70337;SDS011;57757;53.198;19.646;2024-01-15T02:30:43;31.80;;;14.00;;
70337;SDS011;57757;53.198;19.646;2024-01-15T02:33:11;27.80;;;12.20;;
70337;SDS011;57757;53.198;19.646;2024-01-15T02:35:40;28.00;;;12.70;;
70337;SDS011;57757;53.198;19.646;2024-01-15T02:38:07;27.50;;;11.80;;
70337;SDS011;57757;53.198;19.646;2024-01-15T02:40:35;30.70;;;12.80;;
70337;SDS011;57757;53.198;19.646;2024-01-15T02:43:03;25.90;;;12.10;;
70337;SDS011;57757;53.198;19.646;2024-01-15T02:45:31;25.70;;;11.20;;
70337;SDS011;57757;53.198;19.646;2024-01-15T02:47:58;26.80;;;12.10;;
70337;SDS011;57757;53.198;19.646;2024-01-15T02:50:26;29.90;;;12.70;;
70337;SDS011;57757;53.198;19.646;2024-01-15T02:52:54;30.40;;;13.70;;
70337;SDS011;57757;53.198;19.646;2024-01-15T02:55:21;28.80;;;12.80;;
70337;SDS011;57757;53.198;19.646;2024-01-15T02:57:49;27.80;;;12.40;;
70337;SDS011;57757;53.198;19.646;2024-01-15T03:00:16;28.50;;;12.70;;
70337;SDS011;57757;53.198;19.646;2024-01-15T03:02:44;31.70;;;14.50;;
70337;SDS011;57757;53.198;19.646;2024-01-15T03:05:15;28.30;;;12.30;;
70337;SDS011;57757;53.198;19.646;2024-01-15T03:07:43;30.60;;;13.20;;
70337;SDS011;57757;53.198;19.646;2024-01-15T03:10:11;29.60;;;13.00;;
70337;SDS011;57757;53.198;19.646;2024-01-15T03:12:38;31.30;;;12.60;;
70337;SDS011;57757;53.198;19.646;2024-01-15T03:15:06;31.90;;;14.70;;
70337;SDS011;57757;53.198;19.646;2024-01-15T03:17:34;25.30;;;11.80;;
70337;SDS011;57757;53.198;19.646;2024-01-15T03:20:02;27.70;;;13.40;;
70337;SDS011;57757;53.198;19.646;2024-01-15T03:22:30;32.70;;;14.60;;
70337;SDS011;57757;53.198;19.646;2024-01-15T03:24:58;29.30;;;12.90;;
70337;SDS011;57757;53.198;19.646;2024-01-15T03:27:26;29.30;;;13.50;;
70337;SDS011;57757;53.198;19.646;2024-01-15T03:29:53;27.50;;;13.00;;
70337;SDS011;57757;53.198;19.646;2024-01-15T03:32:21;23.80;;;11.30;;
70337;SDS011;57757;53.198;19.646;2024-01-15T03:34:48;30.40;;;12.80;;
70337;SDS011;57757;53.198;19.646;2024-01-15T03:37:16;30.80;;;12.10;;
70337;SDS011;57757;53.198;19.646;2024-01-15T03:39:44;27.20;;;11.60;;
70337;SDS011;57757;53.198;19.646;2024-01-15T03:42:12;27.10;;;12.40;;
70337;SDS011;57757;53.198;19.646;2024-01-15T03:44:39;27.40;;;11.30;;
70337;SDS011;57757;53.198;19.646;2024-01-15T03:47:07;29.40;;;12.90;;
70337;SDS011;57757;53.198;19.646;2024-01-15T03:49:34;29.60;;;12.80;;
70337;SDS011;57757;53.198;19.646;2024-01-15T03:52:02;31.50;;;14.50;;
70337;SDS011;57757;53.198;19.646;2024-01-15T03:54:30;28.20;;;12.10;;
70337;SDS011;57757;53.198;19.646;2024-01-15T03:56:58;28.20;;;11.90;;
70337;SDS011;57757;53.198;19.646;2024-01-15T03:59:26;27.20;;;11.60;;
70337;SDS011;57757;53.198;19.646;2024-01-15T04:01:54;28.70;;;11.80;;
70337;SDS011;57757;53.198;19.646;2024-01-15T04:04:21;26.10;;;11.20;;
70337;SDS011;57757;53.198;19.646;2024-01-15T04:06:51;25.80;;;11.10;;
70337;SDS011;57757;53.198;19.646;2024-01-15T04:09:19;25.30;;;12.00;;
70337;SDS011;57757;53.198;19.646;2024-01-15T04:11:47;27.70;;;12.00;;
70337;SDS011;57757;53.198;19.646;2024-01-15T04:14:15;30.90;;;12.80;;
70337;SDS011;57757;53.198;19.646;2024-01-15T04:16:42;29.50;;;12.50;;
70337;SDS011;57757;53.198;19.646;2024-01-15T04:19:09;28.90;;;11.10;;
70337;SDS011;57757;53.198;19.646;2024-01-15T04:21:37;27.80;;;11.70;;
70337;SDS011;57757;53.198;19.646;2024-01-15T04:24:05;27.00;;;11.20;;
70337;SDS011;57757;53.198;19.646;2024-01-15T04:26:33;25.40;;;10.80;;
70337;SDS011;57757;53.198;19.646;2024-01-15T04:29:01;24.40;;;10.10;;
70337;SDS011;57757;53.198;19.646;2024-01-15T04:31:28;26.60;;;11.00;;
70337;SDS011;57757;53.198;19.646;2024-01-15T04:33:56;26.10;;;10.80;;
70337;SDS011;57757;53.198;19.646;2024-01-15T04:36:24;27.10;;;11.20;;
70337;SDS011;57757;53.198;19.646;2024-01-15T04:38:52;26.90;;;11.20;;
70337;SDS011;57757;53.198;19.646;2024-01-15T04:41:20;26.10;;;11.50;;
70337;SDS011;57757;53.198;19.646;2024-01-15T04:43:47;29.10;;;11.50;;
70337;SDS011;57757;53.198;19.646;2024-01-15T04:46:15;34.50;;;13.50;;
70337;SDS011;57757;53.198;19.646;2024-01-15T04:48:43;28.00;;;12.90;;
70337;SDS011;57757;53.198;19.646;2024-01-15T04:51:11;30.90;;;13.40;;
70337;SDS011;57757;53.198;19.646;2024-01-15T04:53:38;29.20;;;12.90;;
70337;SDS011;57757;53.198;19.646;2024-01-15T04:56:06;67.30;;;37.00;;
70337;SDS011;57757;53.198;19.646;2024-01-15T04:58:34;33.40;;;14.50;;
70337;SDS011;57757;53.198;19.646;2024-01-15T05:01:02;30.80;;;13.60;;
70337;SDS011;57757;53.198;19.646;2024-01-15T05:03:31;37.50;;;17.00;;
70337;SDS011;57757;53.198;19.646;2024-01-15T05:05:59;29.90;;;13.00;;
70337;SDS011;57757;53.198;19.646;2024-01-15T05:08:27;32.80;;;13.10;;
70337;SDS011;57757;53.198;19.646;2024-01-15T05:10:55;31.60;;;13.20;;
70337;SDS011;57757;53.198;19.646;2024-01-15T05:13:23;39.20;;;17.00;;
70337;SDS011;57757;53.198;19.646;2024-01-15T05:15:50;34.70;;;13.50;;
70337;SDS011;57757;53.198;19.646;2024-01-15T05:18:18;34.10;;;14.20;;
70337;SDS011;57757;53.198;19.646;2024-01-15T05:20:46;30.00;;;13.00;;
70337;SDS011;57757;53.198;19.646;2024-01-15T05:23:14;29.40;;;13.00;;
70337;SDS011;57757;53.198;19.646;2024-01-15T05:25:41;32.50;;;12.40;;
70337;SDS011;57757;53.198;19.646;2024-01-15T05:28:09;33.30;;;12.20;;
70337;SDS011;57757;53.198;19.646;2024-01-15T05:30:36;33.50;;;13.60;;
70337;SDS011;57757;53.198;19.646;2024-01-15T05:33:04;33.10;;;13.50;;
70337;SDS011;57757;53.198;19.646;2024-01-15T05:35:32;34.30;;;14.30;;
70337;SDS011;57757;53.198;19.646;2024-01-15T05:38:00;31.20;;;12.40;;
70337;SDS011;57757;53.198;19.646;2024-01-15T05:40:27;38.00;;;13.80;;
70337;SDS011;57757;53.198;19.646;2024-01-15T05:42:55;36.90;;;13.90;;
70337;SDS011;57757;53.198;19.646;2024-01-15T05:45:22;31.60;;;13.70;;
70337;SDS011;57757;53.198;19.646;2024-01-15T05:47:50;36.30;;;15.00;;
70337;SDS011;57757;53.198;19.646;2024-01-15T05:50:18;31.40;;;12.40;;
70337;SDS011;57757;53.198;19.646;2024-01-15T05:52:45;39.70;;;15.40;;
70337;SDS011;57757;53.198;19.646;2024-01-15T05:55:13;39.90;;;18.70;;
70337;SDS011;57757;53.198;19.646;2024-01-15T05:57:41;37.90;;;15.90;;
70337;SDS011;57757;53.198;19.646;2024-01-15T06:00:08;45.80;;;19.20;;
70337;SDS011;57757;53.198;19.646;2024-01-15T06:02:37;45.50;;;18.70;;
70337;SDS011;57757;53.198;19.646;2024-01-15T06:05:06;42.80;;;15.20;;
70337;SDS011;57757;53.198;19.646;2024-01-15T06:07:34;49.80;;;17.60;;
70337;SDS011;57757;53.198;19.646;2024-01-15T06:10:03;33.90;;;13.90;;
70337;SDS011;57757;53.198;19.646;2024-01-15T06:12:34;38.80;;;15.50;;
70337;SDS011;57757;53.198;19.646;2024-01-15T06:15:02;39.40;;;16.20;;
70337;SDS011;57757;53.198;19.646;2024-01-15T06:17:30;39.50;;;16.40;;
70337;SDS011;57757;53.198;19.646;2024-01-15T06:19:58;42.50;;;17.20;;
70337;SDS011;57757;53.198;19.646;2024-01-15T06:22:26;39.50;;;17.80;;
70337;SDS011;57757;53.198;19.646;2024-01-15T06:24:53;28.70;;;11.80;;
70337;SDS011;57757;53.198;19.646;2024-01-15T06:27:21;29.40;;;12.30;;
70337;SDS011;57757;53.198;19.646;2024-01-15T06:29:49;32.00;;;13.30;;
70337;SDS011;57757;53.198;19.646;2024-01-15T06:32:17;28.20;;;11.50;;
70337;SDS011;57757;53.198;19.646;2024-01-15T06:34:45;28.30;;;13.00;;
70337;SDS011;57757;53.198;19.646;2024-01-15T06:37:13;28.90;;;12.10;;
70337;SDS011;57757;53.198;19.646;2024-01-15T06:39:40;25.50;;;11.00;;
70337;SDS011;57757;53.198;19.646;2024-01-15T06:42:08;26.30;;;11.30;;
70337;SDS011;57757;53.198;19.646;2024-01-15T06:44:35;28.20;;;13.20;;
70337;SDS011;57757;53.198;19.646;2024-01-15T06:47:03;26.10;;;11.30;;
70337;SDS011;57757;53.198;19.646;2024-01-15T06:49:31;26.30;;;9.80;;
70337;SDS011;57757;53.198;19.646;2024-01-15T06:51:59;28.30;;;11.80;;
70337;SDS011;57757;53.198;19.646;2024-01-15T06:54:26;26.60;;;10.10;;
70337;SDS011;57757;53.198;19.646;2024-01-15T06:56:54;26.50;;;12.60;;
70337;SDS011;57757;53.198;19.646;2024-01-15T06:59:22;26.20;;;12.80;;
70337;SDS011;57757;53.198;19.646;2024-01-15T07:01:49;36.00;;;16.80;;
70337;SDS011;57757;53.198;19.646;2024-01-15T07:04:17;27.10;;;11.40;;
70337;SDS011;57757;53.198;19.646;2024-01-15T07:06:45;22.80;;;8.70;;
70337;SDS011;57757;53.198;19.646;2024-01-15T07:09:13;24.50;;;10.20;;
70337;SDS011;57757;53.198;19.646;2024-01-15T07:11:44;23.80;;;8.90;;
70337;SDS011;57757;53.198;19.646;2024-01-15T07:14:13;21.30;;;7.40;;
70337;SDS011;57757;53.198;19.646;2024-01-15T07:16:41;16.50;;;6.80;;
70337;SDS011;57757;53.198;19.646;2024-01-15T07:19:12;17.10;;;7.00;;
70337;SDS011;57757;53.198;19.646;2024-01-15T07:21:40;22.50;;;7.30;;
70337;SDS011;57757;53.198;19.646;2024-01-15T07:24:09;21.00;;;8.20;;
70337;SDS011;57757;53.198;19.646;2024-01-15T07:26:38;20.50;;;7.60;;
70337;SDS011;57757;53.198;19.646;2024-01-15T07:29:05;21.70;;;8.80;;
70337;SDS011;57757;53.198;19.646;2024-01-15T07:31:33;25.30;;;10.90;;
70337;SDS011;57757;53.198;19.646;2024-01-15T07:34:00;20.00;;;8.30;;
70337;SDS011;57757;53.198;19.646;2024-01-15T07:36:28;20.50;;;8.00;;
70337;SDS011;57757;53.198;19.646;2024-01-15T07:38:55;17.20;;;6.90;;
70337;SDS011;57757;53.198;19.646;2024-01-15T07:41:23;24.20;;;7.50;;
70337;SDS011;57757;53.198;19.646;2024-01-15T07:43:51;21.50;;;7.00;;
70337;SDS011;57757;53.198;19.646;2024-01-15T07:46:18;16.40;;;6.20;;
70337;SDS011;57757;53.198;19.646;2024-01-15T07:48:46;24.60;;;10.10;;
70337;SDS011;57757;53.198;19.646;2024-01-15T07:51:13;17.10;;;6.30;;
70337;SDS011;57757;53.198;19.646;2024-01-15T07:53:41;17.30;;;8.00;;
70337;SDS011;57757;53.198;19.646;2024-01-15T07:56:08;19.00;;;5.20;;
70337;SDS011;57757;53.198;19.646;2024-01-15T07:58:36;17.10;;;6.60;;
70337;SDS011;57757;53.198;19.646;2024-01-15T08:01:04;27.10;;;9.00;;
70337;SDS011;57757;53.198;19.646;2024-01-15T08:03:32;19.40;;;7.30;;
70337;SDS011;57757;53.198;19.646;2024-01-15T08:05:59;13.40;;;5.30;;
70337;SDS011;57757;53.198;19.646;2024-01-15T08:08:27;13.80;;;5.00;;
70337;SDS011;57757;53.198;19.646;2024-01-15T08:10:54;15.10;;;6.20;;
70337;SDS011;57757;53.198;19.646;2024-01-15T08:13:22;13.90;;;5.70;;
70337;SDS011;57757;53.198;19.646;2024-01-15T08:15:50;18.30;;;5.80;;
70337;SDS011;57757;53.198;19.646;2024-01-15T08:18:18;18.30;;;6.40;;
70337;SDS011;57757;53.198;19.646;2024-01-15T08:20:45;20.80;;;8.70;;
70337;SDS011;57757;53.198;19.646;2024-01-15T08:23:13;22.80;;;8.40;;
70337;SDS011;57757;53.198;19.646;2024-01-15T08:25:42;21.30;;;8.30;;
70337;SDS011;57757;53.198;19.646;2024-01-15T08:28:10;20.90;;;8.20;;
70337;SDS011;57757;53.198;19.646;2024-01-15T08:30:37;22.30;;;8.30;;
70337;SDS011;57757;53.198;19.646;2024-01-15T08:33:05;20.00;;;7.80;;
70337;SDS011;57757;53.198;19.646;2024-01-15T08:35:45;19.70;;;8.30;;
70337;SDS011;57757;53.198;19.646;2024-01-15T08:38:13;20.90;;;7.60;;
70337;SDS011;57757;53.198;19.646;2024-01-15T08:40:40;19.80;;;6.80;;
70337;SDS011;57757;53.198;19.646;2024-01-15T08:43:08;22.80;;;8.00;;
70337;SDS011;57757;53.198;19.646;2024-01-15T08:45:36;19.40;;;6.60;;
70337;SDS011;57757;53.198;19.646;2024-01-15T08:48:04;19.60;;;8.20;;
70337;SDS011;57757;53.198;19.646;2024-01-15T08:50:32;28.10;;;10.20;;
70337;SDS011;57757;53.198;19.646;2024-01-15T08:53:00;23.10;;;7.90;;
70337;SDS011;57757;53.198;19.646;2024-01-15T08:55:27;32.30;;;11.40;;
70337;SDS011;57757;53.198;19.646;2024-01-15T08:57:55;21.10;;;8.80;;
70337;SDS011;57757;53.198;19.646;2024-01-15T09:00:29;24.40;;;10.10;;
70337;SDS011;57757;53.198;19.646;2024-01-15T09:03:02;23.10;;;8.20;;
70337;SDS011;57757;53.198;19.646;2024-01-15T09:05:30;23.30;;;7.90;;
70337;SDS011;57757;53.198;19.646;2024-01-15T09:08:00;22.00;;;8.20;;
70337;SDS011;57757;53.198;19.646;2024-01-15T09:10:28;22.80;;;9.30;;
70337;SDS011;57757;53.198;19.646;2024-01-15T09:12:56;18.80;;;7.60;;
70337;SDS011;57757;53.198;19.646;2024-01-15T09:15:23;24.90;;;8.70;;
70337;SDS011;57757;53.198;19.646;2024-01-15T09:17:51;18.80;;;7.60;;
70337;SDS011;57757;53.198;19.646;2024-01-15T09:20:19;22.90;;;7.70;;
70337;SDS011;57757;53.198;19.646;2024-01-15T09:22:48;17.40;;;7.30;;
70337;SDS011;57757;53.198;19.646;2024-01-15T09:25:16;22.50;;;8.00;;
70337;SDS011;57757;53.198;19.646;2024-01-15T09:27:43;15.50;;;6.30;;
70337;SDS011;57757;53.198;19.646;2024-01-15T09:30:14;27.10;;;8.70;;
70337;SDS011;57757;53.198;19.646;2024-01-15T09:32:42;24.80;;;9.30;;
70337;SDS011;57757;53.198;19.646;2024-01-15T09:35:10;19.70;;;8.40;;
70337;SDS011;57757;53.198;19.646;2024-01-15T09:37:39;21.60;;;9.50;;
70337;SDS011;57757;53.198;19.646;2024-01-15T09:40:15;18.70;;;8.00;;
70337;SDS011;57757;53.198;19.646;2024-01-15T09:42:43;19.50;;;6.80;;
70337;SDS011;57757;53.198;19.646;2024-01-15T09:45:13;21.10;;;8.00;;
70337;SDS011;57757;53.198;19.646;2024-01-15T09:47:43;21.40;;;8.50;;
70337;SDS011;57757;53.198;19.646;2024-01-15T09:50:14;21.50;;;8.70;;
70337;SDS011;57757;53.198;19.646;2024-01-15T09:52:47;22.30;;;10.40;;
70337;SDS011;57757;53.198;19.646;2024-01-15T09:55:17;28.10;;;11.50;;
70337;SDS011;57757;53.198;19.646;2024-01-15T09:57:46;35.00;;;14.10;;
70337;SDS011;57757;53.198;19.646;2024-01-15T10:00:14;30.40;;;11.90;;
70337;SDS011;57757;53.198;19.646;2024-01-15T10:02:45;25.30;;;10.20;;
70337;SDS011;57757;53.198;19.646;2024-01-15T10:05:13;31.50;;;11.70;;
70337;SDS011;57757;53.198;19.646;2024-01-15T10:07:41;27.40;;;10.10;;
70337;SDS011;57757;53.198;19.646;2024-01-15T10:10:10;32.60;;;12.30;;
70337;SDS011;57757;53.198;19.646;2024-01-15T10:12:39;34.20;;;12.70;;
70337;SDS011;57757;53.198;19.646;2024-01-15T10:15:08;22.70;;;7.40;;
70337;SDS011;57757;53.198;19.646;2024-01-15T10:17:38;17.20;;;7.40;;
70337;SDS011;57757;53.198;19.646;2024-01-15T10:20:07;22.20;;;8.20;;
70337;SDS011;57757;53.198;19.646;2024-01-15T10:22:40;28.40;;;10.10;;
70337;SDS011;57757;53.198;19.646;2024-01-15T10:25:18;20.80;;;8.90;;
70337;SDS011;57757;53.198;19.646;2024-01-15T10:27:58;19.90;;;7.50;;
70337;SDS011;57757;53.198;19.646;2024-01-15T10:30:31;19.20;;;7.50;;
70337;SDS011;57757;53.198;19.646;2024-01-15T10:33:01;18.50;;;7.80;;
70337;SDS011;57757;53.198;19.646;2024-01-15T10:35:31;25.60;;;9.90;;
70337;SDS011;57757;53.198;19.646;2024-01-15T10:38:00;31.50;;;9.80;;
70337;SDS011;57757;53.198;19.646;2024-01-15T10:40:30;29.70;;;11.00;;
70337;SDS011;57757;53.198;19.646;2024-01-15T10:42:57;39.60;;;17.70;;
70337;SDS011;57757;53.198;19.646;2024-01-15T10:45:25;25.80;;;11.50;;
70337;SDS011;57757;53.198;19.646;2024-01-15T10:47:54;41.60;;;17.80;;
70337;SDS011;57757;53.198;19.646;2024-01-15T10:50:26;31.00;;;13.20;;
70337;SDS011;57757;53.198;19.646;2024-01-15T10:52:56;29.90;;;12.10;;
70337;SDS011;57757;53.198;19.646;2024-01-15T10:55:24;23.00;;;10.10;;
70337;SDS011;57757;53.198;19.646;2024-01-15T10:57:53;28.70;;;12.00;;
70337;SDS011;57757;53.198;19.646;2024-01-15T11:00:24;51.60;;;16.90;;
70337;SDS011;57757;53.198;19.646;2024-01-15T11:02:52;42.20;;;15.10;;
70337;SDS011;57757;53.198;19.646;2024-01-15T11:05:25;21.70;;;8.70;;
70337;SDS011;57757;53.198;19.646;2024-01-15T11:07:58;32.00;;;13.40;;
70337;SDS011;57757;53.198;19.646;2024-01-15T11:13:20;22.90;;;9.70;;
70337;SDS011;57757;53.198;19.646;2024-01-15T11:15:56;21.60;;;10.10;;
70337;SDS011;57757;53.198;19.646;2024-01-15T11:18:29;25.30;;;10.60;;
70337;SDS011;57757;53.198;19.646;2024-01-15T11:23:52;42.80;;;14.50;;
70337;SDS011;57757;53.198;19.646;2024-01-15T11:29:08;30.30;;;12.50;;
70337;SDS011;57757;53.198;19.646;2024-01-15T11:34:06;18.70;;;7.40;;
70337;SDS011;57757;53.198;19.646;2024-01-15T11:41:55;20.10;;;6.50;;
70337;SDS011;57757;53.198;19.646;2024-01-15T11:44:27;17.20;;;5.60;;
70337;SDS011;57757;53.198;19.646;2024-01-15T11:47:02;21.30;;;6.90;;
70337;SDS011;57757;53.198;19.646;2024-01-15T11:52:34;14.80;;;5.50;;
70337;SDS011;57757;53.198;19.646;2024-01-15T11:58:10;16.30;;;5.80;;
70337;SDS011;57757;53.198;19.646;2024-01-15T12:00:42;16.60;;;5.70;;
70337;SDS011;57757;53.198;19.646;2024-01-15T12:03:12;14.30;;;5.50;;
70337;SDS011;57757;53.198;19.646;2024-01-15T12:05:41;13.50;;;5.30;;
70337;SDS011;57757;53.198;19.646;2024-01-15T12:08:10;14.50;;;5.60;;
70337;SDS011;57757;53.198;19.646;2024-01-15T12:10:41;13.00;;;5.40;;
70337;SDS011;57757;53.198;19.646;2024-01-15T12:13:10;16.30;;;5.50;;
70337;SDS011;57757;53.198;19.646;2024-01-15T12:15:41;12.50;;;4.50;;
70337;SDS011;57757;53.198;19.646;2024-01-15T12:18:12;14.60;;;6.40;;
70337;SDS011;57757;53.198;19.646;2024-01-15T12:20:43;15.40;;;6.00;;
70337;SDS011;57757;53.198;19.646;2024-01-15T12:23:16;14.40;;;5.40;;
70337;SDS011;57757;53.198;19.646;2024-01-15T12:25:45;16.60;;;6.90;;
70337;SDS011;57757;53.198;19.646;2024-01-15T12:28:14;14.20;;;5.80;;
70337;SDS011;57757;53.198;19.646;2024-01-15T12:30:42;16.30;;;5.30;;
70337;SDS011;57757;53.198;19.646;2024-01-15T12:33:13;15.00;;;5.00;;
70337;SDS011;57757;53.198;19.646;2024-01-15T12:35:40;15.60;;;5.50;;
70337;SDS011;57757;53.198;19.646;2024-01-15T12:38:10;13.80;;;4.60;;
70337;SDS011;57757;53.198;19.646;2024-01-15T12:40:43;22.50;;;12.20;;
70337;SDS011;57757;53.198;19.646;2024-01-15T12:43:13;14.40;;;6.30;;
70337;SDS011;57757;53.198;19.646;2024-01-15T12:45:41;14.20;;;6.40;;
70337;SDS011;57757;53.198;19.646;2024-01-15T12:48:09;14.90;;;7.70;;
70337;SDS011;57757;53.198;19.646;2024-01-15T12:50:36;19.60;;;7.80;;
70337;SDS011;57757;53.198;19.646;2024-01-15T12:53:04;25.30;;;9.40;;
70337;SDS011;57757;53.198;19.646;2024-01-15T12:55:31;35.40;;;14.10;;
70337;SDS011;57757;53.198;19.646;2024-01-15T12:57:59;32.70;;;12.90;;
70337;SDS011;57757;53.198;19.646;2024-01-15T13:00:27;35.30;;;12.60;;
70337;SDS011;57757;53.198;19.646;2024-01-15T13:02:54;29.00;;;12.10;;
70337;SDS011;57757;53.198;19.646;2024-01-15T13:05:24;24.00;;;11.20;;
70337;SDS011;57757;53.198;19.646;2024-01-15T13:07:54;18.30;;;6.60;;
70337;SDS011;57757;53.198;19.646;2024-01-15T13:10:24;25.30;;;10.50;;
70337;SDS011;57757;53.198;19.646;2024-01-15T13:12:53;17.70;;;6.50;;
70337;SDS011;57757;53.198;19.646;2024-01-15T13:15:21;26.60;;;10.50;;
70337;SDS011;57757;53.198;19.646;2024-01-15T13:17:49;30.80;;;10.90;;
70337;SDS011;57757;53.198;19.646;2024-01-15T13:20:16;14.20;;;5.10;;
70337;SDS011;57757;53.198;19.646;2024-01-15T13:22:44;17.80;;;7.40;;
70337;SDS011;57757;53.198;19.646;2024-01-15T13:25:13;13.40;;;4.60;;
70337;SDS011;57757;53.198;19.646;2024-01-15T13:27:40;14.60;;;3.40;;
70337;SDS011;57757;53.198;19.646;2024-01-15T13:30:10;10.20;;;3.00;;
70337;SDS011;57757;53.198;19.646;2024-01-15T13:32:39;13.80;;;5.00;;
70337;SDS011;57757;53.198;19.646;2024-01-15T13:35:07;13.50;;;4.20;;
70337;SDS011;57757;53.198;19.646;2024-01-15T13:37:37;15.70;;;3.90;;
70337;SDS011;57757;53.198;19.646;2024-01-15T13:40:05;13.20;;;4.50;;
70337;SDS011;57757;53.198;19.646;2024-01-15T13:42:35;18.80;;;5.30;;
70337;SDS011;57757;53.198;19.646;2024-01-15T13:45:06;13.90;;;3.30;;
70337;SDS011;57757;53.198;19.646;2024-01-15T13:47:35;9.10;;;2.40;;
70337;SDS011;57757;53.198;19.646;2024-01-15T13:50:03;11.60;;;2.70;;
70337;SDS011;57757;53.198;19.646;2024-01-15T13:52:31;7.30;;;2.30;;
70337;SDS011;57757;53.198;19.646;2024-01-15T13:54:59;11.40;;;2.60;;
70337;SDS011;57757;53.198;19.646;2024-01-15T13:57:27;11.40;;;3.00;;
70337;SDS011;57757;53.198;19.646;2024-01-15T13:59:54;13.20;;;3.30;;
70337;SDS011;57757;53.198;19.646;2024-01-15T14:02:22;7.70;;;2.00;;
70337;SDS011;57757;53.198;19.646;2024-01-15T14:04:52;11.10;;;2.70;;
70337;SDS011;57757;53.198;19.646;2024-01-15T14:07:19;8.10;;;2.00;;
70337;SDS011;57757;53.198;19.646;2024-01-15T14:09:47;12.60;;;3.10;;
70337;SDS011;57757;53.198;19.646;2024-01-15T14:12:15;9.70;;;1.70;;
70337;SDS011;57757;53.198;19.646;2024-01-15T14:14:42;21.40;;;6.30;;
70337;SDS011;57757;53.198;19.646;2024-01-15T14:17:10;28.60;;;9.50;;
70337;SDS011;57757;53.198;19.646;2024-01-15T14:19:38;19.20;;;4.60;;
70337;SDS011;57757;53.198;19.646;2024-01-15T14:22:06;13.30;;;3.40;;
70337;SDS011;57757;53.198;19.646;2024-01-15T14:24:33;22.40;;;6.20;;
70337;SDS011;57757;53.198;19.646;2024-01-15T14:27:01;17.40;;;4.20;;
70337;SDS011;57757;53.198;19.646;2024-01-15T14:29:29;19.80;;;5.40;;
70337;SDS011;57757;53.198;19.646;2024-01-15T14:31:56;10.90;;;2.80;;
70337;SDS011;57757;53.198;19.646;2024-01-15T14:34:24;16.60;;;5.50;;
70337;SDS011;57757;53.198;19.646;2024-01-15T14:36:53;11.50;;;3.40;;
70337;SDS011;57757;53.198;19.646;2024-01-15T14:39:22;13.00;;;3.60;;
70337;SDS011;57757;53.198;19.646;2024-01-15T14:41:50;12.60;;;3.20;;
70337;SDS011;57757;53.198;19.646;2024-01-15T14:44:18;10.90;;;2.50;;